sensor_id;sensor_type;location;lat;lon;timestamp;temperature;humidity
16267;DHT22;8241;48.786;9.250;2022-12-20T00:01:51;2.90;99.90
16267;DHT22;8241;48.786;9.250;2022-12-20T00:04:18;2.90;99.90
16267;DHT22;8241;48.786;9.250;2022-12-20T00:06:47;2.90;99.90
16267;DHT22;8241;48.786;9.250;2022-12-20T00:09:14;2.80;99.90
16267;DHT22;8241;48.786;9.250;2022-12-20T00:11:41;2.90;99.90
16267;DHT22;8241;48.786;9.250;2022-12-20T00:14:08;2.80;99.90
16267;DHT22;8241;48.786;9.250;2022-12-20T00:16:36;2.80;99.90
16267;DHT22;8241;48.786;9.250;2022-12-20T00:19:05;2.80;99.90
16267;DHT22;8241;48.786;9.250;2022-12-20T00:21:33;2.90;99.90
16267;DHT22;8241;48.786;9.250;2022-12-20T00:24:02;2.90;99.90
16267;DHT22;8241;48.786;9.250;2022-12-20T00:26:31;2.80;99.90
16267;DHT22;8241;48.786;9.250;2022-12-20T00:28:59;2.80;99.90
16267;DHT22;8241;48.786;9.250;2022-12-20T00:31:28;2.80;99.90
16267;DHT22;8241;48.786;9.250;2022-12-20T00:33:56;2.80;99.90
16267;DHT22;8241;48.786;9.250;2022-12-20T00:36:25;2.80;99.90
16267;DHT22;8241;48.786;9.250;2022-12-20T00:38:54;2.70;99.90
16267;DHT22;8241;48.786;9.250;2022-12-20T00:41:31;2.70;99.90
16267;DHT22;8241;48.786;9.250;2022-12-20T00:44:00;2.70;99.90
16267;DHT22;8241;48.786;9.250;2022-12-20T00:46:27;2.70;99.90
16267;DHT22;8241;48.786;9.250;2022-12-20T00:48:54;2.60;99.90
16267;DHT22;8241;48.786;9.250;2022-12-20T00:51:28;2.60;99.90
16267;DHT22;8241;48.786;9.250;2022-12-20T00:53:57;2.60;99.90
16267;DHT22;8241;48.786;9.250;2022-12-20T00:56:24;2.60;99.90
16267;DHT22;8241;48.786;9.250;2022-12-20T00:58:53;2.60;99.90
16267;DHT22;8241;48.786;9.250;2022-12-20T01:01:24;2.60;99.90
16267;DHT22;8241;48.786;9.250;2022-12-20T01:03:52;2.70;99.90
16267;DHT22;8241;48.786;9.250;2022-12-20T01:06:20;2.70;99.90
16267;DHT22;8241;48.786;9.250;2022-12-20T01:08:52;2.70;99.90
16267;DHT22;8241;48.786;9.250;2022-12-20T01:11:22;2.70;99.90
16267;DHT22;8241;48.786;9.250;2022-12-20T01:14:03;2.70;99.90
16267;DHT22;8241;48.786;9.250;2022-12-20T01:16:34;2.70;99.90
16267;DHT22;8241;48.786;9.250;2022-12-20T01:19:02;2.80;99.90
16267;DHT22;8241;48.786;9.250;2022-12-20T01:21:31;2.80;99.90
16267;DHT22;8241;48.786;9.250;2022-12-20T01:23:58;2.80;99.90
16267;DHT22;8241;48.786;9.250;2022-12-20T01:26:27;2.70;99.90
16267;DHT22;8241;48.786;9.250;2022-12-20T01:28:58;2.70;99.90
16267;DHT22;8241;48.786;9.250;2022-12-20T01:31:26;2.70;99.90
16267;DHT22;8241;48.786;9.250;2022-12-20T01:33:54;2.70;99.90
16267;DHT22;8241;48.786;9.250;2022-12-20T01:36:22;2.70;99.90
16267;DHT22;8241;48.786;9.250;2022-12-20T01:38:55;2.70;99.90
16267;DHT22;8241;48.786;9.250;2022-12-20T01:41:22;2.70;99.90
16267;DHT22;8241;48.786;9.250;2022-12-20T01:43:52;2.70;99.90
16267;DHT22;8241;48.786;9.250;2022-12-20T01:46:22;2.70;99.90
16267;DHT22;8241;48.786;9.250;2022-12-20T01:48:53;2.70;99.90
16267;DHT22;8241;48.786;9.250;2022-12-20T01:51:22;2.70;99.90
16267;DHT22;8241;48.786;9.250;2022-12-20T01:53:53;2.70;99.90
16267;DHT22;8241;48.786;9.250;2022-12-20T01:56:21;2.70;99.90
16267;DHT22;8241;48.786;9.250;2022-12-20T01:58:50;2.70;99.90
16267;DHT22;8241;48.786;9.250;2022-12-20T02:01:21;2.70;99.90
16267;DHT22;8241;48.786;9.250;2022-12-20T02:03:49;2.60;99.90
16267;DHT22;8241;48.786;9.250;2022-12-20T02:06:20;2.70;99.90
16267;DHT22;8241;48.786;9.250;2022-12-20T02:08:49;2.70;99.90
16267;DHT22;8241;48.786;9.250;2022-12-20T02:11:32;2.70;99.90
16267;DHT22;8241;48.786;9.250;2022-12-20T02:14:10;2.80;99.90
16267;DHT22;8241;48.786;9.250;2022-12-20T02:16:46;2.80;99.90
16267;DHT22;8241;48.786;9.250;2022-12-20T02:19:30;2.80;99.90
16267;DHT22;8241;48.786;9.250;2022-12-20T02:22:15;2.80;99.90
16267;DHT22;8241;48.786;9.250;2022-12-20T02:25:02;2.80;99.90
16267;DHT22;8241;48.786;9.250;2022-12-20T02:27:49;2.80;99.90
16267;DHT22;8241;48.786;9.250;2022-12-20T02:30:21;2.80;99.90
16267;DHT22;8241;48.786;9.250;2022-12-20T02:32:53;2.90;99.90
16267;DHT22;8241;48.786;9.250;2022-12-20T02:35:24;2.90;99.90
16267;DHT22;8241;48.786;9.250;2022-12-20T02:37:57;2.90;99.90
16267;DHT22;8241;48.786;9.250;2022-12-20T02:40:30;2.90;99.90
16267;DHT22;8241;48.786;9.250;2022-12-20T02:43:02;2.90;99.90
16267;DHT22;8241;48.786;9.250;2022-12-20T02:45:53;2.90;99.90
16267;DHT22;8241;48.786;9.250;2022-12-20T02:48:21;2.90;99.90
16267;DHT22;8241;48.786;9.250;2022-12-20T02:50:52;2.90;99.90
16267;DHT22;8241;48.786;9.250;2022-12-20T02:53:22;2.90;99.90
16267;DHT22;8241;48.786;9.250;2022-12-20T02:55:56;3.00;99.90
16267;DHT22;8241;48.786;9.250;2022-12-20T02:58:32;2.90;99.90
16267;DHT22;8241;48.786;9.250;2022-12-20T03:01:06;3.00;99.90
16267;DHT22;8241;48.786;9.250;2022-12-20T03:03:35;3.10;99.90
16267;DHT22;8241;48.786;9.250;2022-12-20T03:06:03;3.10;99.90
16267;DHT22;8241;48.786;9.250;2022-12-20T03:08:30;3.10;99.90
16267;DHT22;8241;48.786;9.250;2022-12-20T03:10:57;3.10;99.90
16267;DHT22;8241;48.786;9.250;2022-12-20T03:13:25;3.00;99.90
16267;DHT22;8241;48.786;9.250;2022-12-20T03:15:59;3.10;99.90
16267;DHT22;8241;48.786;9.250;2022-12-20T03:18:28;3.00;99.90
16267;DHT22;8241;48.786;9.250;2022-12-20T03:20:55;3.10;99.90
16267;DHT22;8241;48.786;9.250;2022-12-20T03:23:22;3.20;99.90
16267;DHT22;8241;48.786;9.250;2022-12-20T03:25:50;3.20;99.90
16267;DHT22;8241;48.786;9.250;2022-12-20T03:28:26;3.30;99.90
16267;DHT22;8241;48.786;9.250;2022-12-20T03:30:54;3.30;99.90
16267;DHT22;8241;48.786;9.250;2022-12-20T03:33:21;3.30;99.90
16267;DHT22;8241;48.786;9.250;2022-12-20T03:35:50;3.30;99.90
16267;DHT22;8241;48.786;9.250;2022-12-20T03:38:18;3.30;99.90
16267;DHT22;8241;48.786;9.250;2022-12-20T03:40:47;3.20;99.90
16267;DHT22;8241;48.786;9.250;2022-12-20T03:43:18;3.10;99.90
16267;DHT22;8241;48.786;9.250;2022-12-20T03:45:45;3.10;99.90
16267;DHT22;8241;48.786;9.250;2022-12-20T03:48:13;3.00;99.90
16267;DHT22;8241;48.786;9.250;2022-12-20T03:50:41;3.00;99.90
16267;DHT22;8241;48.786;9.250;2022-12-20T03:53:11;3.00;99.90
16267;DHT22;8241;48.786;9.250;2022-12-20T03:55:38;3.00;99.90
16267;DHT22;8241;48.786;9.250;2022-12-20T03:58:05;3.10;99.90
16267;DHT22;8241;48.786;9.250;2022-12-20T04:00:36;3.10;99.90
16267;DHT22;8241;48.786;9.250;2022-12-20T04:03:23;3.10;99.90
16267;DHT22;8241;48.786;9.250;2022-12-20T04:05:50;3.10;99.90
16267;DHT22;8241;48.786;9.250;2022-12-20T04:08:19;3.10;99.90
16267;DHT22;8241;48.786;9.250;2022-12-20T04:10:47;3.20;99.90
16267;DHT22;8241;48.786;9.250;2022-12-20T04:13:35;3.10;99.90
16267;DHT22;8241;48.786;9.250;2022-12-20T04:16:03;3.10;99.90
16267;DHT22;8241;48.786;9.250;2022-12-20T04:18:32;3.20;99.90
16267;DHT22;8241;48.786;9.250;2022-12-20T04:21:00;3.20;99.90
16267;DHT22;8241;48.786;9.250;2022-12-20T04:23:31;3.20;99.90
16267;DHT22;8241;48.786;9.250;2022-12-20T04:25:59;3.20;99.90
16267;DHT22;8241;48.786;9.250;2022-12-20T04:28:28;3.20;99.90
16267;DHT22;8241;48.786;9.250;2022-12-20T04:30:56;3.20;99.90
16267;DHT22;8241;48.786;9.250;2022-12-20T04:33:26;3.20;99.90
16267;DHT22;8241;48.786;9.250;2022-12-20T04:35:54;3.20;99.90
16267;DHT22;8241;48.786;9.250;2022-12-20T04:38:22;3.20;99.90
16267;DHT22;8241;48.786;9.250;2022-12-20T04:40:53;3.20;99.90
16267;DHT22;8241;48.786;9.250;2022-12-20T04:43:23;3.10;99.90
16267;DHT22;8241;48.786;9.250;2022-12-20T04:45:52;3.10;99.90
16267;DHT22;8241;48.786;9.250;2022-12-20T04:48:23;3.10;99.90
16267;DHT22;8241;48.786;9.250;2022-12-20T04:50:51;3.10;99.90
16267;DHT22;8241;48.786;9.250;2022-12-20T04:53:20;3.10;99.90
16267;DHT22;8241;48.786;9.250;2022-12-20T04:56:06;3.10;99.90
16267;DHT22;8241;48.786;9.250;2022-12-20T04:58:34;3.10;99.90
16267;DHT22;8241;48.786;9.250;2022-12-20T05:01:03;3.10;99.90
16267;DHT22;8241;48.786;9.250;2022-12-20T05:03:38;3.10;99.90
16267;DHT22;8241;48.786;9.250;2022-12-20T05:06:06;3.10;99.90
16267;DHT22;8241;48.786;9.250;2022-12-20T05:08:33;3.10;99.90
16267;DHT22;8241;48.786;9.250;2022-12-20T05:11:01;3.10;99.90
16267;DHT22;8241;48.786;9.250;2022-12-20T05:13:29;3.10;99.90
16267;DHT22;8241;48.786;9.250;2022-12-20T05:15:57;3.10;99.90
16267;DHT22;8241;48.786;9.250;2022-12-20T05:18:28;3.20;99.90
16267;DHT22;8241;48.786;9.250;2022-12-20T05:21:01;3.20;99.90
16267;DHT22;8241;48.786;9.250;2022-12-20T05:23:48;3.30;99.90
16267;DHT22;8241;48.786;9.250;2022-12-20T05:26:46;3.30;99.90
16267;DHT22;8241;48.786;9.250;2022-12-20T05:29:16;3.40;99.90
16267;DHT22;8241;48.786;9.250;2022-12-20T05:31:43;3.50;99.90
16267;DHT22;8241;48.786;9.250;2022-12-20T05:34:11;3.50;99.90
16267;DHT22;8241;48.786;9.250;2022-12-20T05:36:45;3.50;99.90
16267;DHT22;8241;48.786;9.250;2022-12-20T05:39:15;3.60;99.90
16267;DHT22;8241;48.786;9.250;2022-12-20T05:41:51;3.60;99.90
16267;DHT22;8241;48.786;9.250;2022-12-20T05:44:22;3.50;99.90
16267;DHT22;8241;48.786;9.250;2022-12-20T05:46:52;3.50;99.90
16267;DHT22;8241;48.786;9.250;2022-12-20T05:49:24;3.50;99.90
16267;DHT22;8241;48.786;9.250;2022-12-20T05:51:53;3.40;99.90
16267;DHT22;8241;48.786;9.250;2022-12-20T05:54:23;3.40;99.90
16267;DHT22;8241;48.786;9.250;2022-12-20T05:56:59;3.40;99.90
16267;DHT22;8241;48.786;9.250;2022-12-20T05:59:39;3.40;99.90
16267;DHT22;8241;48.786;9.250;2022-12-20T06:02:12;3.40;99.90
16267;DHT22;8241;48.786;9.250;2022-12-20T06:04:41;3.40;99.90
16267;DHT22;8241;48.786;9.250;2022-12-20T06:07:14;3.50;99.90
16267;DHT22;8241;48.786;9.250;2022-12-20T06:09:43;3.40;99.90
16267;DHT22;8241;48.786;9.250;2022-12-20T06:12:13;3.40;99.90
16267;DHT22;8241;48.786;9.250;2022-12-20T06:14:42;3.40;99.90
16267;DHT22;8241;48.786;9.250;2022-12-20T06:17:14;3.40;99.90
16267;DHT22;8241;48.786;9.250;2022-12-20T06:19:42;3.50;99.90
16267;DHT22;8241;48.786;9.250;2022-12-20T06:22:11;3.50;99.90
16267;DHT22;8241;48.786;9.250;2022-12-20T06:24:46;3.50;99.90
16267;DHT22;8241;48.786;9.250;2022-12-20T06:27:14;3.50;99.90
16267;DHT22;8241;48.786;9.250;2022-12-20T06:29:44;3.50;99.90
16267;DHT22;8241;48.786;9.250;2022-12-20T06:32:18;3.50;99.90
16267;DHT22;8241;48.786;9.250;2022-12-20T06:34:46;3.60;99.90
16267;DHT22;8241;48.786;9.250;2022-12-20T06:37:15;3.50;99.90
16267;DHT22;8241;48.786;9.250;2022-12-20T06:39:44;3.50;99.90
16267;DHT22;8241;48.786;9.250;2022-12-20T06:42:12;3.50;99.90
16267;DHT22;8241;48.786;9.250;2022-12-20T06:44:45;3.50;99.90
16267;DHT22;8241;48.786;9.250;2022-12-20T06:47:12;3.60;99.90
16267;DHT22;8241;48.786;9.250;2022-12-20T06:49:39;3.60;99.90
16267;DHT22;8241;48.786;9.250;2022-12-20T06:52:14;3.60;99.90
16267;DHT22;8241;48.786;9.250;2022-12-20T06:54:45;3.60;99.90
16267;DHT22;8241;48.786;9.250;2022-12-20T06:57:12;3.60;99.90
16267;DHT22;8241;48.786;9.250;2022-12-20T06:59:41;3.50;99.90
16267;DHT22;8241;48.786;9.250;2022-12-20T07:02:10;3.50;99.90
16267;DHT22;8241;48.786;9.250;2022-12-20T07:04:37;3.50;99.90
16267;DHT22;8241;48.786;9.250;2022-12-20T07:07:05;3.50;99.90
16267;DHT22;8241;48.786;9.250;2022-12-20T07:09:32;3.50;99.90
16267;DHT22;8241;48.786;9.250;2022-12-20T07:12:01;3.50;99.90
16267;DHT22;8241;48.786;9.250;2022-12-20T07:14:29;3.50;99.90
16267;DHT22;8241;48.786;9.250;2022-12-20T07:16:56;3.50;99.90
16267;DHT22;8241;48.786;9.250;2022-12-20T07:19:25;3.50;99.90
16267;DHT22;8241;48.786;9.250;2022-12-20T07:21:53;3.50;99.90
16267;DHT22;8241;48.786;9.250;2022-12-20T07:24:21;3.50;99.90
16267;DHT22;8241;48.786;9.250;2022-12-20T07:26:48;3.50;99.90
16267;DHT22;8241;48.786;9.250;2022-12-20T07:29:15;3.40;99.90
16267;DHT22;8241;48.786;9.250;2022-12-20T07:31:42;3.50;99.90
16267;DHT22;8241;48.786;9.250;2022-12-20T07:34:17;3.40;99.90
16267;DHT22;8241;48.786;9.250;2022-12-20T07:36:48;3.40;99.90
16267;DHT22;8241;48.786;9.250;2022-12-20T07:39:15;3.40;99.90
16267;DHT22;8241;48.786;9.250;2022-12-20T07:41:44;3.40;99.90
16267;DHT22;8241;48.786;9.250;2022-12-20T07:44:16;3.50;99.90
16267;DHT22;8241;48.786;9.250;2022-12-20T07:46:47;3.70;99.90
16267;DHT22;8241;48.786;9.250;2022-12-20T07:49:14;3.60;99.90
16267;DHT22;8241;48.786;9.250;2022-12-20T07:51:50;3.60;99.90
16267;DHT22;8241;48.786;9.250;2022-12-20T07:54:26;3.60;99.90
16267;DHT22;8241;48.786;9.250;2022-12-20T07:57:03;3.50;99.90
16267;DHT22;8241;48.786;9.250;2022-12-20T07:59:36;3.50;99.90
16267;DHT22;8241;48.786;9.250;2022-12-20T08:02:07;3.40;99.90
16267;DHT22;8241;48.786;9.250;2022-12-20T08:04:42;3.50;99.90
16267;DHT22;8241;48.786;9.250;2022-12-20T08:07:18;3.60;99.90
16267;DHT22;8241;48.786;9.250;2022-12-20T08:09:47;3.60;99.90
16267;DHT22;8241;48.786;9.250;2022-12-20T08:12:19;3.50;99.90
16267;DHT22;8241;48.786;9.250;2022-12-20T08:14:49;3.60;99.90
16267;DHT22;8241;48.786;9.250;2022-12-20T08:17:29;3.70;99.90
16267;DHT22;8241;48.786;9.250;2022-12-20T08:20:04;3.60;99.90
16267;DHT22;8241;48.786;9.250;2022-12-20T08:22:38;3.60;99.90
16267;DHT22;8241;48.786;9.250;2022-12-20T08:25:06;3.60;99.90
16267;DHT22;8241;48.786;9.250;2022-12-20T08:27:33;3.70;99.90
16267;DHT22;8241;48.786;9.250;2022-12-20T08:30:07;3.70;99.90
16267;DHT22;8241;48.786;9.250;2022-12-20T08:32:35;3.80;99.90
16267;DHT22;8241;48.786;9.250;2022-12-20T08:35:08;3.80;99.90
16267;DHT22;8241;48.786;9.250;2022-12-20T08:37:40;3.90;99.90
16267;DHT22;8241;48.786;9.250;2022-12-20T08:40:08;3.80;99.90
16267;DHT22;8241;48.786;9.250;2022-12-20T08:42:37;3.90;99.90
16267;DHT22;8241;48.786;9.250;2022-12-20T08:45:07;3.90;99.90
16267;DHT22;8241;48.786;9.250;2022-12-20T08:47:40;4.00;99.90
16267;DHT22;8241;48.786;9.250;2022-12-20T08:50:08;3.90;99.90
16267;DHT22;8241;48.786;9.250;2022-12-20T08:52:36;4.00;99.90
16267;DHT22;8241;48.786;9.250;2022-12-20T08:55:07;4.10;99.90
16267;DHT22;8241;48.786;9.250;2022-12-20T08:57:37;4.20;99.90
16267;DHT22;8241;48.786;9.250;2022-12-20T09:00:06;4.20;99.90
16267;DHT22;8241;48.786;9.250;2022-12-20T09:02:43;4.20;99.90
16267;DHT22;8241;48.786;9.250;2022-12-20T09:05:11;4.40;99.90
16267;DHT22;8241;48.786;9.250;2022-12-20T09:07:40;4.40;99.90
16267;DHT22;8241;48.786;9.250;2022-12-20T09:10:11;4.40;99.90
16267;DHT22;8241;48.786;9.250;2022-12-20T09:12:40;4.50;99.90
16267;DHT22;8241;48.786;9.250;2022-12-20T09:15:15;4.50;99.90
16267;DHT22;8241;48.786;9.250;2022-12-20T09:17:44;4.50;99.90
16267;DHT22;8241;48.786;9.250;2022-12-20T09:20:20;4.50;99.90
16267;DHT22;8241;48.786;9.250;2022-12-20T09:22:48;4.50;99.90
16267;DHT22;8241;48.786;9.250;2022-12-20T09:25:18;4.60;99.90
16267;DHT22;8241;48.786;9.250;2022-12-20T09:27:47;4.80;99.90
16267;DHT22;8241;48.786;9.250;2022-12-20T09:30:15;4.80;99.90
16267;DHT22;8241;48.786;9.250;2022-12-20T09:33:00;4.80;99.90
16267;DHT22;8241;48.786;9.250;2022-12-20T09:35:43;4.80;99.90
16267;DHT22;8241;48.786;9.250;2022-12-20T09:38:12;5.00;99.90
16267;DHT22;8241;48.786;9.250;2022-12-20T09:40:47;5.10;99.90
16267;DHT22;8241;48.786;9.250;2022-12-20T09:43:26;5.20;99.90
16267;DHT22;8241;48.786;9.250;2022-12-20T09:46:04;5.20;99.90
16267;DHT22;8241;48.786;9.250;2022-12-20T09:48:34;5.30;99.90
16267;DHT22;8241;48.786;9.250;2022-12-20T09:51:20;5.30;99.90
16267;DHT22;8241;48.786;9.250;2022-12-20T09:54:03;5.30;99.90
16267;DHT22;8241;48.786;9.250;2022-12-20T09:56:49;5.30;99.90
16267;DHT22;8241;48.786;9.250;2022-12-20T09:59:19;5.30;99.90
16267;DHT22;8241;48.786;9.250;2022-12-20T10:01:47;5.40;99.90
16267;DHT22;8241;48.786;9.250;2022-12-20T10:04:21;5.30;99.90
16267;DHT22;8241;48.786;9.250;2022-12-20T10:07:03;5.30;99.90
16267;DHT22;8241;48.786;9.250;2022-12-20T10:09:42;5.30;99.90
16267;DHT22;8241;48.786;9.250;2022-12-20T10:12:23;5.30;99.90
16267;DHT22;8241;48.786;9.250;2022-12-20T10:15:08;5.40;99.90
16267;DHT22;8241;48.786;9.250;2022-12-20T10:17:53;5.50;99.90
16267;DHT22;8241;48.786;9.250;2022-12-20T10:20:45;5.60;99.90
16267;DHT22;8241;48.786;9.250;2022-12-20T10:23:27;5.80;99.90
16267;DHT22;8241;48.786;9.250;2022-12-20T10:26:07;5.90;99.90
16267;DHT22;8241;48.786;9.250;2022-12-20T10:28:39;6.00;99.90
16267;DHT22;8241;48.786;9.250;2022-12-20T10:31:13;6.00;99.90
16267;DHT22;8241;48.786;9.250;2022-12-20T10:33:42;6.10;99.90
16267;DHT22;8241;48.786;9.250;2022-12-20T10:36:21;6.10;99.90
16267;DHT22;8241;48.786;9.250;2022-12-20T10:38:52;6.20;99.90
16267;DHT22;8241;48.786;9.250;2022-12-20T10:41:23;6.20;99.90
16267;DHT22;8241;48.786;9.250;2022-12-20T10:44:00;6.20;99.90
16267;DHT22;8241;48.786;9.250;2022-12-20T10:46:37;6.10;99.90
16267;DHT22;8241;48.786;9.250;2022-12-20T10:49:20;6.10;99.90
16267;DHT22;8241;48.786;9.250;2022-12-20T10:51:51;5.90;99.90
16267;DHT22;8241;48.786;9.250;2022-12-20T10:54:22;5.90;99.90
16267;DHT22;8241;48.786;9.250;2022-12-20T10:57:03;5.80;99.90
16267;DHT22;8241;48.786;9.250;2022-12-20T10:59:42;5.80;99.90
16267;DHT22;8241;48.786;9.250;2022-12-20T11:02:24;5.60;99.90
16267;DHT22;8241;48.786;9.250;2022-12-20T11:05:21;5.50;99.90
16267;DHT22;8241;48.786;9.250;2022-12-20T11:07:56;5.60;99.90
16267;DHT22;8241;48.786;9.250;2022-12-20T11:10:28;5.60;99.90
16267;DHT22;8241;48.786;9.250;2022-12-20T11:12:58;5.60;99.90
16267;DHT22;8241;48.786;9.250;2022-12-20T11:15:29;5.50;99.90
16267;DHT22;8241;48.786;9.250;2022-12-20T11:18:03;5.50;99.90
16267;DHT22;8241;48.786;9.250;2022-12-20T11:20:36;5.50;99.90
16267;DHT22;8241;48.786;9.250;2022-12-20T11:23:14;5.50;99.90
16267;DHT22;8241;48.786;9.250;2022-12-20T11:25:55;5.50;99.90
16267;DHT22;8241;48.786;9.250;2022-12-20T11:28:44;5.50;99.90
16267;DHT22;8241;48.786;9.250;2022-12-20T11:31:20;5.50;99.90
16267;DHT22;8241;48.786;9.250;2022-12-20T11:34:01;5.60;99.90
16267;DHT22;8241;48.786;9.250;2022-12-20T11:36:37;5.50;99.90
16267;DHT22;8241;48.786;9.250;2022-12-20T11:39:14;5.50;99.90
16267;DHT22;8241;48.786;9.250;2022-12-20T11:41:49;5.50;99.90
16267;DHT22;8241;48.786;9.250;2022-12-20T11:44:29;5.50;99.90
16267;DHT22;8241;48.786;9.250;2022-12-20T11:47:24;5.50;99.90
16267;DHT22;8241;48.786;9.250;2022-12-20T11:53:04;5.60;99.90
16267;DHT22;8241;48.786;9.250;2022-12-20T11:55:35;5.70;99.90
16267;DHT22;8241;48.786;9.250;2022-12-20T11:58:09;5.90;99.90
16267;DHT22;8241;48.786;9.250;2022-12-20T12:00:40;5.90;99.90
16267;DHT22;8241;48.786;9.250;2022-12-20T12:03:17;5.90;99.90
16267;DHT22;8241;48.786;9.250;2022-12-20T12:05:51;5.90;99.90
16267;DHT22;8241;48.786;9.250;2022-12-20T12:08:22;5.80;99.90
16267;DHT22;8241;48.786;9.250;2022-12-20T12:10:55;5.90;99.90
16267;DHT22;8241;48.786;9.250;2022-12-20T12:13:41;5.90;99.90
16267;DHT22;8241;48.786;9.250;2022-12-20T12:16:15;5.90;99.90
16267;DHT22;8241;48.786;9.250;2022-12-20T12:18:47;6.10;99.90
16267;DHT22;8241;48.786;9.250;2022-12-20T12:21:22;6.00;99.90
16267;DHT22;8241;48.786;9.250;2022-12-20T12:23:57;5.90;99.90
16267;DHT22;8241;48.786;9.250;2022-12-20T12:26:30;5.90;99.90
16267;DHT22;8241;48.786;9.250;2022-12-20T12:29:09;5.90;99.90
16267;DHT22;8241;48.786;9.250;2022-12-20T12:31:43;5.90;99.90
16267;DHT22;8241;48.786;9.250;2022-12-20T12:34:38;5.90;99.90
16267;DHT22;8241;48.786;9.250;2022-12-20T12:37:34;5.90;99.90
16267;DHT22;8241;48.786;9.250;2022-12-20T12:40:20;5.90;99.90
16267;DHT22;8241;48.786;9.250;2022-12-20T12:43:19;6.00;99.90
16267;DHT22;8241;48.786;9.250;2022-12-20T12:45:56;6.00;99.90
16267;DHT22;8241;48.786;9.250;2022-12-20T12:48:28;6.00;99.90
16267;DHT22;8241;48.786;9.250;2022-12-20T12:51:05;6.00;99.90
16267;DHT22;8241;48.786;9.250;2022-12-20T12:53:35;6.10;99.90
16267;DHT22;8241;48.786;9.250;2022-12-20T12:56:29;6.10;99.90
16267;DHT22;8241;48.786;9.250;2022-12-20T12:59:43;6.10;99.90
16267;DHT22;8241;48.786;9.250;2022-12-20T13:02:23;6.10;99.90
16267;DHT22;8241;48.786;9.250;2022-12-20T13:04:52;6.10;99.90
16267;DHT22;8241;48.786;9.250;2022-12-20T13:07:40;6.10;99.90
16267;DHT22;8241;48.786;9.250;2022-12-20T13:13:12;6.20;99.90
16267;DHT22;8241;48.786;9.250;2022-12-20T13:16:11;6.20;99.90
16267;DHT22;8241;48.786;9.250;2022-12-20T13:18:55;6.40;99.90
16267;DHT22;8241;48.786;9.250;2022-12-20T13:21:41;6.30;99.90
16267;DHT22;8241;48.786;9.250;2022-12-20T13:24:54;6.40;99.90
16267;DHT22;8241;48.786;9.250;2022-12-20T13:27:34;6.40;99.90
16267;DHT22;8241;48.786;9.250;2022-12-20T13:30:25;6.30;99.90
16267;DHT22;8241;48.786;9.250;2022-12-20T13:33:37;6.40;99.90
16267;DHT22;8241;48.786;9.250;2022-12-20T13:36:33;6.50;99.90
16267;DHT22;8241;48.786;9.250;2022-12-20T13:39:29;6.60;99.90
16267;DHT22;8241;48.786;9.250;2022-12-20T13:42:14;6.70;99.90
16267;DHT22;8241;48.786;9.250;2022-12-20T13:44:44;6.60;99.90
16267;DHT22;8241;48.786;9.250;2022-12-20T13:47:35;6.60;99.90
16267;DHT22;8241;48.786;9.250;2022-12-20T13:50:29;6.60;99.90
16267;DHT22;8241;48.786;9.250;2022-12-20T13:52:57;6.70;99.90
16267;DHT22;8241;48.786;9.250;2022-12-20T13:55:31;6.70;99.90
16267;DHT22;8241;48.786;9.250;2022-12-20T13:58:18;6.80;99.90
16267;DHT22;8241;48.786;9.250;2022-12-20T14:00:47;6.70;99.90
16267;DHT22;8241;48.786;9.250;2022-12-20T14:03:25;6.70;99.90
16267;DHT22;8241;48.786;9.250;2022-12-20T14:05:56;6.80;99.90
16267;DHT22;8241;48.786;9.250;2022-12-20T14:08:27;6.70;99.90
16267;DHT22;8241;48.786;9.250;2022-12-20T14:10:54;6.90;99.90
16267;DHT22;8241;48.786;9.250;2022-12-20T14:13:25;6.70;99.90
16267;DHT22;8241;48.786;9.250;2022-12-20T14:15:53;6.60;99.90
16267;DHT22;8241;48.786;9.250;2022-12-20T14:18:22;6.60;99.90
16267;DHT22;8241;48.786;9.250;2022-12-20T14:20:52;6.60;99.90
16267;DHT22;8241;48.786;9.250;2022-12-20T14:23:25;6.60;99.90
16267;DHT22;8241;48.786;9.250;2022-12-20T14:25:55;6.50;99.90
16267;DHT22;8241;48.786;9.250;2022-12-20T14:28:30;6.50;99.90
16267;DHT22;8241;48.786;9.250;2022-12-20T14:30:59;6.60;99.90
16267;DHT22;8241;48.786;9.250;2022-12-20T14:33:33;6.60;99.90
16267;DHT22;8241;48.786;9.250;2022-12-20T14:36:09;6.50;99.90
16267;DHT22;8241;48.786;9.250;2022-12-20T14:38:38;6.60;99.90
16267;DHT22;8241;48.786;9.250;2022-12-20T14:41:30;6.50;99.90
16267;DHT22;8241;48.786;9.250;2022-12-20T14:44:02;6.50;99.90
16267;DHT22;8241;48.786;9.250;2022-12-20T14:46:30;6.40;99.90
16267;DHT22;8241;48.786;9.250;2022-12-20T14:49:17;6.40;99.90
16267;DHT22;8241;48.786;9.250;2022-12-20T14:51:50;6.40;99.90
16267;DHT22;8241;48.786;9.250;2022-12-20T14:54:19;6.30;99.90
16267;DHT22;8241;48.786;9.250;2022-12-20T14:56:47;6.40;99.90
16267;DHT22;8241;48.786;9.250;2022-12-20T14:59:22;6.40;99.90
16267;DHT22;8241;48.786;9.250;2022-12-20T15:01:51;6.40;99.90
16267;DHT22;8241;48.786;9.250;2022-12-20T15:04:25;6.40;99.90
16267;DHT22;8241;48.786;9.250;2022-12-20T15:06:57;6.50;99.90
16267;DHT22;8241;48.786;9.250;2022-12-20T15:09:24;6.40;99.90
16267;DHT22;8241;48.786;9.250;2022-12-20T15:11:58;6.50;99.90
16267;DHT22;8241;48.786;9.250;2022-12-20T15:14:32;6.60;99.90
16267;DHT22;8241;48.786;9.250;2022-12-20T15:17:22;6.50;99.90
16267;DHT22;8241;48.786;9.250;2022-12-20T15:19:49;6.50;99.90
16267;DHT22;8241;48.786;9.250;2022-12-20T15:22:18;6.50;99.90
16267;DHT22;8241;48.786;9.250;2022-12-20T15:24:46;6.50;99.90
16267;DHT22;8241;48.786;9.250;2022-12-20T15:27:15;6.40;99.90
16267;DHT22;8241;48.786;9.250;2022-12-20T15:29:43;6.40;99.90
16267;DHT22;8241;48.786;9.250;2022-12-20T15:32:16;6.40;99.90
16267;DHT22;8241;48.786;9.250;2022-12-20T15:34:45;6.40;99.90
16267;DHT22;8241;48.786;9.250;2022-12-20T15:37:16;6.40;99.90
16267;DHT22;8241;48.786;9.250;2022-12-20T15:39:44;6.30;99.90
16267;DHT22;8241;48.786;9.250;2022-12-20T15:42:15;6.40;99.90
16267;DHT22;8241;48.786;9.250;2022-12-20T15:44:44;6.30;99.90
16267;DHT22;8241;48.786;9.250;2022-12-20T15:47:12;6.30;99.90
16267;DHT22;8241;48.786;9.250;2022-12-20T15:49:40;6.30;99.90
16267;DHT22;8241;48.786;9.250;2022-12-20T15:52:10;6.40;99.90
16267;DHT22;8241;48.786;9.250;2022-12-20T15:54:42;6.50;99.90
16267;DHT22;8241;48.786;9.250;2022-12-20T15:57:13;6.50;99.90
16267;DHT22;8241;48.786;9.250;2022-12-20T15:59:40;6.40;99.90
16267;DHT22;8241;48.786;9.250;2022-12-20T16:02:18;6.40;99.90
16267;DHT22;8241;48.786;9.250;2022-12-20T16:04:46;6.40;99.90
16267;DHT22;8241;48.786;9.250;2022-12-20T16:07:13;6.40;99.90
16267;DHT22;8241;48.786;9.250;2022-12-20T16:09:40;6.40;99.90
16267;DHT22;8241;48.786;9.250;2022-12-20T16:12:12;6.30;99.90
16267;DHT22;8241;48.786;9.250;2022-12-20T16:14:40;6.30;99.90
16267;DHT22;8241;48.786;9.250;2022-12-20T16:17:12;6.30;99.90
16267;DHT22;8241;48.786;9.250;2022-12-20T16:19:40;6.30;99.90
16267;DHT22;8241;48.786;9.250;2022-12-20T16:22:13;6.40;99.90
16267;DHT22;8241;48.786;9.250;2022-12-20T16:24:42;6.40;99.90
16267;DHT22;8241;48.786;9.250;2022-12-20T16:27:11;6.30;99.90
16267;DHT22;8241;48.786;9.250;2022-12-20T16:29:38;6.20;99.90
16267;DHT22;8241;48.786;9.250;2022-12-20T16:32:14;6.20;99.90
16267;DHT22;8241;48.786;9.250;2022-12-20T16:34:43;6.20;99.90
16267;DHT22;8241;48.786;9.250;2022-12-20T16:37:10;6.10;99.90
16267;DHT22;8241;48.786;9.250;2022-12-20T16:39:38;6.10;99.90
16267;DHT22;8241;48.786;9.250;2022-12-20T16:42:10;6.10;99.90
16267;DHT22;8241;48.786;9.250;2022-12-20T16:44:39;6.10;99.90
16267;DHT22;8241;48.786;9.250;2022-12-20T16:47:09;6.20;99.90